Time;durP1;ratioP1;P1;durP2;ratioP2;P2;SDS_P1;SDS_P2;PMS_P1;PMS_P2;Temp;Humidity;BMP_temperature;BMP_pressure;BME280_temperature;BME280_humidity;BME280_pressure;Samples;Min_cycle;Max_cycle;Signal;HPM_P1;HPM_P2
2023/02/06 00:03:52;;;;;;;24.60;12.20;;;;;;;-0.58;57.36;101236.76;229160;1199;138261;-75
2023/02/06 00:08:55;;;;;;;21.60;12.30;;;;;;;-0.59;57.42;101229.94;228679;1202;138068;-75
2023/02/06 00:13:59;;;;;;;22.80;12.20;;;;;;;-0.61;57.32;101235.66;228639;1199;139271;-76
2023/02/06 00:19:03;;;;;;;22.60;12.80;;;;;;;-0.63;57.21;101226.03;228752;1202;138499;-74
2023/02/06 00:24:07;;;;;;;27.10;12.80;;;;;;;-0.63;57.19;101226.05;228618;1203;138325;-75
2023/02/06 00:29:11;;;;;;;23.10;12.10;;;;;;;-0.65;57.64;101221.98;230129;1201;138727;-74
2023/02/06 00:35:19;;;;;;;23.10;12.10;;;;;;;-0.65;57.42;101224.41;229391;1196;138269;-69
2023/02/06 00:40:22;;;;;;;23.30;12.40;;;;;;;-0.61;57.21;101213.69;229532;1199;139733;-70
2023/02/06 00:45:58;;;;;;;25.20;11.90;;;;;;;-0.60;56.95;101215.98;229142;1196;138765;-70
2023/02/06 00:51:02;;;;;;;22.40;11.60;;;;;;;-0.70;56.46;101219.98;229260;1196;139088;-69
2023/02/06 00:56:06;;;;;;;18.50;10.40;;;;;;;-0.76;56.85;101217.42;229030;1198;137951;-69
2023/02/06 01:01:10;;;;;;;22.40;11.00;;;;;;;-0.71;57.38;101213.16;229130;1198;138425;-69
2023/02/06 01:06:53;;;;;;;19.50;10.60;;;;;;;-0.63;57.46;101208.60;229650;1198;139546;-70
2023/02/06 01:12:29;;;;;;;18.20;11.00;;;;;;;-0.66;57.35;101218.84;229387;1199;139228;-74
2023/02/06 01:17:33;;;;;;;21.90;11.40;;;;;;;-0.74;56.96;101216.42;229174;1196;137925;-74
2023/02/06 01:23:41;;;;;;;17.50;10.60;;;;;;;-0.78;57.06;101207.98;229409;1198;138274;-74
2023/02/06 01:28:47;;;;;;;20.80;10.60;;;;;;;-0.79;56.73;101195.77;229765;1199;137904;-73
2023/02/06 01:33:52;;;;;;;18.30;11.40;;;;;;;-0.82;56.74;101190.48;229412;1198;138008;-72
2023/02/06 01:38:55;;;;;;;17.60;10.20;;;;;;;-0.77;57.20;101180.47;229585;1198;111993;-73
2023/02/06 01:44:44;;;;;;;18.00;9.50;;;;;;;-0.77;57.15;101183.61;229159;1199;142975;-74
2023/02/06 01:49:49;;;;;;;15.00;8.80;;;;;;;-0.78;57.42;101178.73;228838;1201;138327;-74
2023/02/06 01:55:58;;;;;;;19.60;10.30;;;;;;;-0.76;56.92;101175.08;229865;1198;138080;-74
2023/02/06 02:01:03;;;;;;;16.10;9.40;;;;;;;-0.76;57.18;101171.42;229242;1199;137894;-74
2023/02/06 02:06:14;;;;;;;17.20;9.70;;;;;;;-0.76;56.77;101163.91;230236;1196;138617;-74
2023/02/06 02:11:27;;;;;;;16.20;10.00;;;;;;;-0.76;56.58;101161.30;229129;1208;138363;-74
2023/02/06 02:16:34;;;;;;;18.70;11.00;;;;;;;-0.79;56.28;101167.89;230461;1198;138653;-73
2023/02/06 02:22:05;;;;;;;16.90;10.00;;;;;;;-0.78;56.30;101161.10;229148;1199;99197;-72
2023/02/06 02:27:50;;;;;;;18.30;10.10;;;;;;;-0.79;56.21;101150.80;229060;1198;138634;-73
2023/02/06 02:33:36;;;;;;;18.80;10.90;;;;;;;-0.83;56.05;101149.00;228996;1198;138931;-73
2023/02/06 02:39:44;;;;;;;18.20;10.70;;;;;;;-0.84;55.94;101145.31;228938;1197;138616;-73
2023/02/06 02:45:11;;;;;;;19.70;10.90;;;;;;;-0.83;55.93;101143.59;229510;1198;138456;-72
2023/02/06 02:50:57;;;;;;;20.10;11.40;;;;;;;-0.86;56.14;101136.56;229136;1203;138563;-72
2023/02/06 02:56:01;;;;;;;21.70;10.90;;;;;;;-0.90;56.11;101128.11;229156;1199;99715;-73
2023/02/06 03:01:12;;;;;;;21.50;11.20;;;;;;;-0.88;56.56;101121.91;229137;1200;137801;-72
2023/02/06 03:13:36;;;;;;;20.10;10.80;;;;;;;-0.87;56.41;101120.86;229881;1199;138546;-73
2023/02/06 03:19:47;;;;;;;21.50;10.90;;;;;;;-0.86;56.42;101118.80;229347;1196;138388;-74
2023/02/06 03:25:47;;;;;;;23.70;12.20;;;;;;;-0.86;55.98;101117.41;229322;1199;138160;-74
2023/02/06 03:30:57;;;;;;;24.20;12.20;;;;;;;-0.87;55.91;101119.48;229931;1198;138514;-73
2023/02/06 03:36:04;;;;;;;23.30;11.60;;;;;;;-0.86;56.03;101125.95;229869;1199;161134;-74
2023/02/06 03:41:11;;;;;;;21.20;12.20;;;;;;;-0.88;55.64;101131.47;229961;1198;107066;-71
2023/02/06 03:46:49;;;;;;;67.20;37.30;;;;;;;-0.73;56.85;101134.71;231053;1193;139496;-71
2023/02/06 03:52:06;;;;;;;22.90;12.30;;;;;;;-0.69;56.86;101139.48;229567;1198;138332;-72
2023/02/06 03:57:13;;;;;;;25.60;13.00;;;;;;;-0.68;56.16;101139.85;229912;1200;138400;-73
2023/02/06 04:02:20;;;;;;;90.60;52.70;;;;;;;-0.67;56.62;101140.55;229092;1199;138879;-71
2023/02/06 04:07:28;;;;;;;27.90;15.40;;;;;;;-0.38;59.05;101141.04;230197;1198;138593;-74
2023/02/06 04:12:36;;;;;;;24.50;12.40;;;;;;;-0.28;55.19;101135.11;228936;1199;138855;-74
2023/02/06 04:17:40;;;;;;;20.50;11.80;;;;;;;-0.47;54.59;101130.45;229173;1198;138213;-73
2023/02/06 04:23:05;;;;;;;22.40;13.30;;;;;;;-0.64;54.40;101126.14;229470;1199;139240;-72
2023/02/06 04:29:55;;;;;;;22.80;12.10;;;;;;;-0.69;54.87;101123.79;229417;1198;138320;-73
2023/02/06 04:35:48;;;;;;;21.30;11.20;;;;;;;-0.75;54.60;101123.52;229842;1194;99694;-73
2023/02/06 04:40:52;;;;;;;21.30;12.10;;;;;;;-0.79;54.89;101132.52;230453;1194;138139;-72
2023/02/06 04:45:56;;;;;;;21.40;11.80;;;;;;;-0.83;54.70;101129.83;229664;1199;138525;-72
2023/02/06 04:51:00;;;;;;;98.10;55.50;;;;;;;-0.94;54.92;101135.90;229538;1198;138504;-71
2023/02/06 04:56:06;;;;;;;21.90;12.60;;;;;;;-0.87;55.36;101138.80;230318;1193;139461;-72
2023/02/06 05:01:15;;;;;;;25.50;12.90;;;;;;;-0.94;54.79;101138.33;230883;1199;106288;-73
2023/02/06 05:06:56;;;;;;;20.00;12.30;;;;;;;-1.00;54.84;101141.01;229896;1197;139093;-72
2023/02/06 05:12:12;;;;;;;25.70;12.30;;;;;;;-1.02;54.86;101150.21;230197;1199;138427;-73
2023/02/06 05:17:29;;;;;;;22.30;11.60;;;;;;;-1.01;55.44;101148.13;229420;1198;139455;-72
2023/02/06 05:23:06;;;;;;;21.70;12.30;;;;;;;-1.02;55.33;101163.46;231187;1193;138971;-73
2023/02/06 05:28:57;;;;;;;23.00;12.40;;;;;;;-1.02;55.18;101165.89;229685;1194;138779;-73
2023/02/06 05:34:11;;;;;;;22.30;12.70;;;;;;;-1.06;55.27;101167.89;229455;1199;138853;-74
2023/02/06 05:45:44;;;;;;;28.40;14.10;;;;;;;-1.05;55.55;101168.98;229658;1199;138127;-73
2023/02/06 05:51:21;;;;;;;24.90;13.00;;;;;;;-1.04;55.81;101167.42;230054;1193;138927;-73
2023/02/06 05:56:34;;;;;;;26.60;12.70;;;;;;;-1.14;55.53;101165.11;229921;1199;138418;-73
2023/02/06 06:01:38;;;;;;;25.30;13.50;;;;;;;-1.16;55.57;101164.90;229518;1193;139381;-73
2023/02/06 06:06:43;;;;;;;;;;;;;;;-1.14;55.67;101166.01;231504;1198;138979;-72
2023/02/06 06:11:47;;;;;;;26.90;13.60;;;;;;;-1.09;55.97;101167.84;230664;1199;125005;-73
2023/02/06 06:16:51;;;;;;;26.90;14.20;;;;;;;-1.09;56.25;101170.27;229109;1200;138160;-71
2023/02/06 06:21:55;;;;;;;25.30;13.40;;;;;;;-1.09;56.53;101168.88;230229;1196;138600;-73
2023/02/06 06:27:01;;;;;;;29.70;13.80;;;;;;;-1.07;56.60;101158.98;229727;1198;138484;-73
2023/02/06 06:32:05;;;;;;;20.70;10.70;;;;;;;-1.07;56.53;101159.84;229310;1199;139098;-73
2023/02/06 06:37:08;;;;;;;30.50;15.60;;;;;;;-1.10;56.49;101163.11;229637;1196;138770;-74
2023/02/06 06:42:12;;;;;;;26.10;14.70;;;;;;;-1.08;56.86;101160.55;229584;1199;138122;-73
2023/02/06 06:47:16;;;;;;;28.10;13.90;;;;;;;-1.05;56.30;101159.19;229466;1199;138076;-71
2023/02/06 06:53:38;;;;;;;31.70;14.80;;;;;;;-1.08;56.37;101162.30;230141;1199;139260;-72
2023/02/06 06:58:42;;;;;;;30.60;16.00;;;;;;;-1.04;56.53;101163.40;229785;1198;138946;-72
2023/02/06 07:10:31;;;;;;;31.10;17.00;;;;;;;-0.98;56.25;101172.58;229806;1199;137880;-71
2023/02/06 07:15:35;;;;;;;29.50;16.90;;;;;;;-0.94;56.01;101164.28;228944;1197;138559;-71
2023/02/06 07:20:39;;;;;;;28.50;14.90;;;;;;;-0.91;56.14;101168.19;230014;1199;138921;-70
2023/02/06 07:25:43;;;;;;;27.20;15.10;;;;;;;-0.88;56.04;101164.58;230436;1198;138931;-71
2023/02/06 07:30:46;;;;;;;29.80;15.50;;;;;;;-0.83;55.61;101165.37;231330;1193;139042;-70
2023/02/06 07:35:58;;;;;;;27.80;15.60;;;;;;;-0.76;55.50;101163.94;230008;1194;139076;-71
2023/02/06 07:41:05;;;;;;;32.10;16.10;;;;;;;-0.66;55.47;101164.27;230081;1200;138805;-71
2023/02/06 07:46:08;;;;;;;30.00;15.10;;;;;;;-0.59;55.51;101163.01;229509;1197;140292;-70
2023/02/06 07:51:14;;;;;;;26.90;14.30;;;;;;;-0.50;55.44;101169.60;229619;1196;138424;-71
2023/02/06 07:56:24;;;;;;;27.70;14.60;;;;;;;-0.45;55.63;101166.21;231465;1193;140021;-72
2023/02/06 08:01:28;;;;;;;25.90;14.90;;;;;;;-0.40;55.08;101166.83;229562;1196;138427;-72
2023/02/06 08:06:32;;;;;;;24.50;13.90;;;;;;;-0.31;54.96;101166.96;228922;1199;138657;-71
2023/02/06 08:18:19;;;;;;;28.60;15.20;;;;;;;-0.14;54.34;101161.48;229650;1196;100987;-72
2023/02/06 08:23:30;;;;;;;26.60;15.20;;;;;;;-0.10;54.17;101155.63;230719;1196;139239;-71
2023/02/06 08:28:34;;;;;;;29.10;15.80;;;;;;;-0.06;53.98;101159.71;229785;1197;138134;-72
2023/02/06 08:33:39;;;;;;;28.80;16.10;;;;;;;-0.01;53.97;101161.02;229878;1193;138702;-72
2023/02/06 08:38:43;;;;;;;29.70;16.40;;;;;;;0.03;54.09;101165.41;231187;1193;138593;-71
2023/02/06 08:43:51;;;;;;;28.90;16.30;;;;;;;0.09;53.94;101170.56;230650;1196;138005;-72
2023/02/06 08:56:40;;;;;;;28.50;15.00;;;;;;;0.27;53.46;101162.98;229900;1198;138471;-71
2023/02/06 09:01:45;;;;;;;23.90;13.40;;;;;;;0.36;52.89;101168.69;228960;1197;138469;-72
2023/02/06 09:06:50;;;;;;;24.90;13.00;;;;;;;0.42;52.69;101162.66;229684;1196;138383;-71
2023/02/06 09:11:56;;;;;;;17.40;11.10;;;;;;;0.49;52.13;101164.31;230091;1196;138457;-71
2023/02/06 09:17:00;;;;;;;17.10;9.80;;;;;;;0.54;51.71;101165.25;230104;1198;139052;-72
2023/02/06 09:22:04;;;;;;;16.60;9.00;;;;;;;0.56;50.78;101170.88;230018;1194;138244;-72
2023/02/06 09:41:55;;;;;;;11.90;5.10;;;;;;;0.53;50.62;101184.64;229254;1199;124328;-74
2023/02/06 09:47:05;;;;;;;98.90;49.60;;;;;;;1.86;57.30;101174.47;230328;1196;138122;-72
2023/02/06 09:52:37;;;;;;;14.80;9.30;;;;;;;1.81;49.71;101173.42;231435;1193;139354;-70
2023/02/06 09:57:48;;;;;;;12.40;7.40;;;;;;;1.43;49.07;101169.59;229628;1197;138521;-71
2023/02/06 10:03:06;;;;;;;11.80;7.00;;;;;;;1.20;48.87;101171.97;229414;1198;138327;-70
2023/02/06 10:08:27;;;;;;;10.10;6.60;;;;;;;1.04;48.77;101170.41;229332;1193;138606;-71
2023/02/06 10:14:11;;;;;;;10.80;6.40;;;;;;;0.95;48.78;101180.79;231175;1196;138684;-71
2023/02/06 10:19:37;;;;;;;10.00;5.70;;;;;;;0.93;48.81;101186.89;231492;1199;138553;-70
2023/02/06 10:25:02;;;;;;;8.20;5.30;;;;;;;0.92;48.48;101186.70;229766;1197;139576;-71
2023/02/06 10:30:05;;;;;;;8.70;5.90;;;;;;;0.90;48.63;101189.13;229887;1196;138453;-70
2023/02/06 10:35:53;;;;;;;8.30;5.40;;;;;;;0.90;48.30;101183.88;229711;1196;138512;-71
2023/02/06 10:41:24;;;;;;;18.10;10.80;;;;;;;1.00;48.49;101178.06;230712;1196;138058;-70
2023/02/06 10:46:59;;;;;;;10.80;6.70;;;;;;;1.13;48.20;101170.86;229672;1199;138262;-70
2023/02/06 10:52:21;;;;;;;8.50;5.70;;;;;;;1.24;48.53;101167.82;229798;1196;138140;-71
2023/02/06 10:58:01;;;;;;;10.70;6.40;;;;;;;1.27;48.00;101170.64;229383;1198;138212;-69
2023/02/06 11:03:14;;;;;;;12.60;7.10;;;;;;;1.25;48.17;101175.36;230739;1193;138761;-70
2023/02/06 11:08:56;;;;;;;11.30;6.40;;;;;;;1.26;47.68;101179.90;229707;1197;138310;-70
2023/02/06 11:20:43;;;;;;;11.70;6.50;;;;;;;1.26;48.05;101175.70;229957;1195;138093;-71
2023/02/06 11:26:16;;;;;;;11.30;6.50;;;;;;;1.29;47.38;101171.91;229675;1199;138767;-71
2023/02/06 11:31:39;;;;;;;10.50;6.20;;;;;;;1.37;47.51;101161.48;229318;1197;138453;-72
2023/02/06 11:36:42;;;;;;;9.50;6.30;;;;;;;1.43;47.68;101163.11;229440;1195;138221;-69
2023/02/06 11:42:38;;;;;;;9.30;5.80;;;;;;;1.47;47.16;101162.11;230112;1196;138062;-70
2023/02/06 11:47:43;;;;;;;9.40;6.30;;;;;;;1.49;47.14;101156.71;229369;1197;137917;-69
2023/02/06 11:52:46;;;;;;;10.10;6.20;;;;;;;1.49;47.24;101154.60;231652;1194;138529;-73
2023/02/06 11:58:10;;;;;;;8.20;5.70;;;;;;;1.47;47.14;101159.13;229110;1197;137542;-70
2023/02/06 12:03:32;;;;;;;7.80;5.00;;;;;;;1.48;46.81;101159.31;229787;1197;137949;-70
2023/02/06 12:08:54;;;;;;;8.50;5.40;;;;;;;1.48;46.72;101156.70;229566;1196;100477;-71
2023/02/06 12:21:18;;;;;;;9.90;5.00;;;;;;;1.43;46.05;101151.92;229992;1196;138389;-70
2023/02/06 12:33:41;;;;;;;9.30;6.20;;;;;;;1.55;46.78;101156.41;231037;1196;139193;-69
2023/02/06 14:00:19;;;;;;;;;;;;;;;;;;;;;
2023/02/06 14:07:25;;;;;;;;;;;;;;;;;;;;;
2023/02/06 14:14:23;;;;;;;;;;;;;;;;;;;;;
2023/02/06 14:20:44;;;;;;;;;;;;;;;;;;;;;
2023/02/06 14:27:11;;;;;;;202.70;105.10;;;;;;;1.19;48.54;101198.55;235640;1192;138124;-65
2023/02/06 14:33:30;;;;;;;17.10;8.00;;;;;;;1.28;48.04;101198.27;235779;1192;138361;-68
2023/02/06 14:40:15;;;;;;;10.50;6.70;;;;;;;1.15;47.82;101210.04;235553;1192;137821;-65
2023/02/06 14:47:10;;;;;;;11.50;7.30;;;;;;;0.99;47.98;101217.20;234721;1196;137687;-66
2023/02/06 14:53:26;;;;;;;13.90;7.90;;;;;;;0.85;48.25;101217.18;235540;1192;138073;-66
2023/02/06 15:02:16;;;;;;;15.30;7.90;;;;;;;0.72;48.13;101202.53;232728;1212;635632;-66
2023/02/06 15:08:48;;;;;;;;;;;;;;;;;;;;;
2023/02/06 15:15:04;;;;;;;12.90;8.10;;;;;;;0.53;48.58;101209.08;234370;1199;138536;-67
2023/02/06 15:21:21;;;;;;;;;;;;;;;;;;;;;
2023/02/06 15:27:59;;;;;;;;;;;;;;;;;;;;;
2023/02/06 15:34:14;;;;;;;14.80;8.80;;;;;;;0.33;48.56;101208.78;235799;1193;137845;-67
2023/02/06 15:41:13;;;;;;;13.20;8.10;;;;;;;0.23;49.03;101210.92;234722;1196;138782;-66
2023/02/06 15:47:16;;;;;;;;;;;;;;;;;;;;;
2023/02/06 15:53:37;;;;;;;17.10;8.70;;;;;;;0.06;49.74;101222.88;235708;1193;140349;-67
2023/02/06 16:02:09;;;;;;;14.10;8.30;;;;;;;-0.01;50.12;101230.77;232540;1212;635762;-66
2023/02/06 16:08:36;;;;;;;15.00;9.40;;;;;;;-0.11;50.23;101235.67;234882;1196;138756;-66
2023/02/06 16:15:03;;;;;;;16.20;8.70;;;;;;;-0.21;50.39;101238.66;235143;1195;138063;-66
2023/02/06 16:21:44;;;;;;;;;;;;;;;;;;;;;
2023/02/06 16:28:43;;;;;;;;;;;;;;;;;;;;;
2023/02/06 16:35:19;;;;;;;19.50;10.30;;;;;;;-0.48;51.29;101241.66;235022;1194;139611;-67
2023/02/06 16:42:30;;;;;;;20.30;10.20;;;;;;;-0.52;51.58;101241.59;234960;1193;138774;-65
2023/02/06 16:48:24;;;;;;;22.20;10.80;;;;;;;-0.68;51.92;101251.05;234920;1193;139069;-69
2023/02/06 16:55:48;;;;;;;18.90;10.90;;;;;;;-0.74;52.40;101248.31;235166;1196;138503;-66
2023/02/06 17:09:03;;;;;;;20.80;10.90;;;;;;;-0.81;53.03;101259.33;235121;1196;138748;-67
2023/02/06 17:15:28;;;;;;;20.90;11.80;;;;;;;-0.89;53.29;101264.93;235279;1197;138382;-67
2023/02/06 17:34:36;;;;;;;;;;;;;;;;;;;;;
2023/02/06 17:41:17;;;;;;;38.90;14.00;;;;;;;-1.17;54.51;101255.27;235862;1193;138909;-65
2023/02/06 18:02:46;;;;;;;39.70;18.20;;;;;;;-1.54;55.06;101270.80;231293;1213;658421;-66
2023/02/06 18:08:55;;;;;;;41.50;18.90;;;;;;;-1.72;55.21;101272.30;234967;1193;139410;-70
2023/02/06 18:23:15;;;;;;;;;;;;;;;;;;;;;
2023/02/06 18:28:39;;;;;;;34.20;18.20;;;;;;;-2.16;56.03;101281.84;235176;1195;138782;-68
2023/02/06 18:34:08;;;;;;;37.90;19.20;;;;;;;-2.24;56.10;101279.52;235217;1195;139319;-69
2023/02/06 18:46:16;;;;;;;37.90;19.50;;;;;;;-2.45;56.32;101300.55;234884;1198;138160;-66
2023/02/06 18:52:21;;;;;;;;;;;;;;;;;;;;;
2023/02/06 18:58:38;;;;;;;;;;;;;;;;;;;;;
2023/02/06 19:03:45;;;;;;;44.30;22.40;;;;;;;-2.64;56.49;101304.91;235012;1198;138963;-68
2023/02/06 19:10:00;;;;;;;;;;;;;;;;;;;;;
2023/02/06 19:16:04;;;;;;;62.60;26.30;;;;;;;-2.81;56.79;101301.45;234831;1198;139697;-69
2023/02/06 19:22:58;;;;;;;71.70;35.30;;;;;;;-2.95;57.01;101302.59;235063;1194;138511;-67
2023/02/06 19:49:08;;;;;;;;;;;;;;;;;;;;;
2023/02/06 19:55:12;;;;;;;;;;;;;;;;;;;;;
2023/02/06 20:00:58;;;;;;;;;;;;;;;;;;;;;
2023/02/06 21:36:22;;;;;;;;;;;;;;;;;;;;;
2023/02/06 21:42:38;;;;;;;419.50;210.60;;;;;;;-3.82;60.66;101414.20;231558;1202;138780;-65
2023/02/06 21:55:48;;;;;;;136.70;62.30;;;;;;;-3.35;59.36;101418.02;231903;1201;138852;-67
2023/02/06 22:02:25;;;;;;;114.70;54.10;;;;;;;-3.04;61.65;101419.38;232701;1198;140356;-66
2023/02/06 22:08:29;;;;;;;110.20;49.20;;;;;;;-3.02;58.84;101427.06;234719;1198;138768;-66
2023/02/06 22:14:39;;;;;;;101.00;47.30;;;;;;;-3.04;58.75;101442.80;234750;1196;139328;-64
2023/02/06 22:20:47;;;;;;;190.60;92.60;;;;;;;-2.94;59.25;101456.13;234664;1198;139266;-65
2023/02/06 22:27:04;;;;;;;819.40;503.40;;;;;;;-2.79;58.78;101469.97;233779;1197;139020;-66
2023/02/06 22:33:12;;;;;;;100.70;47.10;;;;;;;-1.09;66.78;101458.84;234814;1195;139671;-67
2023/02/06 22:39:39;;;;;;;114.40;53.10;;;;;;;-1.26;56.49;101466.47;235131;1196;140932;-69
2023/02/06 22:45:13;;;;;;;;;;;;;;;;;;;;;
2023/02/06 22:51:32;;;;;;;;;;;;;;;;;;;;;
2023/02/06 23:02:56;;;;;;;68.10;32.10;;;;;;;-2.38;55.84;101439.95;232203;1211;637416;-65
2023/02/06 23:09:01;;;;;;;65.90;30.90;;;;;;;-2.58;55.41;101451.34;235350;1193;138486;-66
2023/02/06 23:15:50;;;;;;;74.90;35.60;;;;;;;-2.77;55.27;101453.17;235383;1193;138515;-66
2023/02/06 23:21:50;;;;;;;75.70;35.40;;;;;;;-2.96;55.34;101452.95;235285;1193;139189;-68
2023/02/06 23:27:11;;;;;;;82.90;38.30;;;;;;;-2.96;56.72;101447.73;235388;1193;138954;-68
2023/02/06 23:33:10;;;;;;;82.90;38.00;;;;;;;-3.02;55.78;101444.80;235361;1194;138732;-68
2023/02/06 23:46:30;;;;;;;75.70;35.60;;;;;;;-3.30;56.57;101423.56;235368;1192;141960;-67
2023/02/06 23:52:47;;;;;;;81.30;38.30;;;;;;;-3.32;56.77;101419.50;235670;1193;138986;-67
2023/02/06 23:58:51;;;;;;;;;;;;;;;-3.37;56.89;101416.56;235448;1193;139047;-67
